createdAt,value
2023-03-22T00:01:14.070Z,101602.91
2023-03-22T00:03:41.066Z,101605.25
2023-03-22T00:06:08.377Z,101605.97
2023-03-22T00:08:35.686Z,101613.91
2023-03-22T00:11:03.403Z,101621.78
2023-03-22T00:13:31.509Z,101616.84
2023-03-22T00:15:59.863Z,101625.22
2023-03-22T00:18:26.788Z,101619.13
2023-03-22T00:20:55.807Z,101620.78
2023-03-22T00:23:23.887Z,101621.75
2023-03-22T00:25:50.788Z,101616.41
2023-03-22T00:28:18.222Z,101631.66
2023-03-22T00:30:56.609Z,101632.75
2023-03-22T00:33:27.868Z,101634.06
2023-03-22T00:35:58.704Z,101639.44
2023-03-22T00:38:41.214Z,101624.75
2023-03-22T00:41:28.726Z,101633.97
2023-03-22T00:43:55.523Z,101640.81
2023-03-22T00:46:23.134Z,101634.06
2023-03-22T00:48:49.999Z,101629.13
2023-03-22T00:51:18.075Z,101624.09
2023-03-22T00:53:44.898Z,101614.84
2023-03-22T00:56:16.272Z,101612.53
2023-03-22T00:58:48.038Z,101613.97
2023-03-22T01:01:15.262Z,101612.63
2023-03-22T01:03:43.434Z,101606.06
2023-03-22T01:06:14.083Z,101602.00
2023-03-22T01:08:41.014Z,101606.50
2023-03-22T01:11:09.787Z,101608.59
2023-03-22T01:13:42.006Z,101607.84
2023-03-22T01:16:10.450Z,101602.66
2023-03-22T01:18:37.675Z,101607.44
2023-03-22T01:21:07.159Z,101610.69
2023-03-22T01:23:34.405Z,101609.66
2023-03-22T01:26:02.687Z,101621.34
2023-03-22T01:28:30.367Z,101613.63
2023-03-22T01:31:00.569Z,101616.19
2023-03-22T01:33:27.425Z,101621.44
2023-03-22T01:35:54.343Z,101618.25
2023-03-22T01:38:21.720Z,101623.44
2023-03-22T01:40:53.670Z,101625.88
2023-03-22T01:43:21.122Z,101627.38
2023-03-22T01:45:50.330Z,101616.06
2023-03-22T01:48:26.814Z,101615.13
2023-03-22T01:50:59.801Z,101616.97
2023-03-22T01:53:28.162Z,101614.41
2023-03-22T01:55:57.725Z,101615.94
2023-03-22T01:58:29.960Z,101617.69
2023-03-22T02:01:00.917Z,101611.19
2023-03-22T02:04:15.761Z,101605.09
2023-03-22T02:06:43.215Z,101614.59
2023-03-22T02:09:22.151Z,101596.81
2023-03-22T02:11:59.935Z,101596.19
2023-03-22T02:15:09.933Z,101600.34
2023-03-22T02:18:11.436Z,101601.34
2023-03-22T02:20:51.061Z,101598.06
2023-03-22T02:23:46.575Z,101599.16
2023-03-22T02:26:24.308Z,101599.16
2023-03-22T02:28:58.343Z,101588.03
2023-03-22T02:31:49.514Z,101587.19
2023-03-22T02:34:40.753Z,101589.81
2023-03-22T02:37:22.318Z,101583.78
2023-03-22T02:40:15.143Z,101581.97
2023-03-22T02:43:08.785Z,101576.09
2023-03-22T02:45:45.825Z,101579.63
2023-03-22T02:48:34.417Z,101584.00
2023-03-22T02:51:08.297Z,101580.34
2023-03-22T02:53:47.076Z,101586.66
2023-03-22T02:56:30.312Z,101584.81
2023-03-22T02:59:02.577Z,101582.25
2023-03-22T03:01:37.242Z,101577.59
2023-03-22T03:04:09.562Z,101582.44
2023-03-22T03:06:45.997Z,101570.53
2023-03-22T03:09:18.850Z,101573.34
2023-03-22T03:11:47.928Z,101572.47
2023-03-22T03:14:27.137Z,101575.72
2023-03-22T03:17:22.340Z,101570.41
2023-03-22T03:20:13.601Z,101571.88
2023-03-22T03:23:01.340Z,101581.13
2023-03-22T03:25:46.527Z,101575.19
2023-03-22T03:28:30.348Z,101572.81
2023-03-22T03:31:07.928Z,101579.44
2023-03-22T03:33:40.174Z,101574.91
2023-03-22T03:36:11.350Z,101578.25
2023-03-22T03:38:44.593Z,101581.63
2023-03-22T03:41:20.316Z,101587.78
2023-03-22T03:43:51.423Z,101582.63
2023-03-22T03:46:18.616Z,101587.09
2023-03-22T03:48:48.544Z,101591.53
2023-03-22T03:51:15.402Z,101588.78
2023-03-22T03:53:49.217Z,101587.09
2023-03-22T03:56:17.330Z,101586.31
2023-03-22T03:58:46.555Z,101584.91
2023-03-22T04:01:13.646Z,101574.84
2023-03-22T04:03:55.669Z,101590.47
2023-03-22T04:06:45.901Z,101600.69
2023-03-22T04:09:17.601Z,101597.09
2023-03-22T04:11:49.009Z,101599.78
2023-03-22T04:14:16.450Z,101603.25
2023-03-22T04:16:46.938Z,101594.19
2023-03-22T04:19:19.195Z,101608.00
2023-03-22T04:21:46.367Z,101606.63
2023-03-22T04:24:14.165Z,101604.22
2023-03-22T04:26:43.410Z,101600.88
2023-03-22T04:29:18.992Z,101606.63
2023-03-22T04:31:50.348Z,101604.75
2023-03-22T04:34:21.543Z,101606.50
2023-03-22T04:36:52.016Z,101609.06
2023-03-22T04:39:30.970Z,101606.31
2023-03-22T04:42:19.158Z,101610.50
2023-03-22T04:44:46.986Z,101615.97
2023-03-22T04:47:13.757Z,101612.31
2023-03-22T04:49:40.983Z,101610.97
2023-03-22T04:52:08.306Z,101612.59
2023-03-22T04:54:37.523Z,101612.41
2023-03-22T04:57:04.925Z,101612.59
2023-03-22T04:59:37.828Z,101608.44
2023-03-22T05:02:05.357Z,101617.16
2023-03-22T05:04:39.113Z,101611.16
2023-03-22T05:07:14.287Z,101615.03
2023-03-22T05:09:46.809Z,101607.25
2023-03-22T05:12:14.674Z,101610.53
2023-03-22T05:14:50.533Z,101614.16
2023-03-22T05:17:22.862Z,101616.97
2023-03-22T05:19:52.364Z,101618.03
2023-03-22T05:22:22.485Z,101609.63
2023-03-22T05:24:51.347Z,101608.13
2023-03-22T05:27:31.364Z,101616.66
2023-03-22T05:30:06.511Z,101623.69
2023-03-22T05:32:44.114Z,101623.81
2023-03-22T05:35:12.109Z,101619.66
2023-03-22T05:37:43.437Z,101625.63
2023-03-22T05:40:13.533Z,101631.59
2023-03-22T05:42:43.558Z,101627.19
2023-03-22T05:45:18.776Z,101628.94
2023-03-22T05:47:50.691Z,101637.34
2023-03-22T05:50:23.017Z,101638.28
2023-03-22T05:52:50.607Z,101625.59
2023-03-22T05:55:32.292Z,101635.94
2023-03-22T05:58:02.327Z,101637.53
2023-03-22T06:00:36.057Z,101635.81
2023-03-22T06:03:23.472Z,101630.56
2023-03-22T06:05:58.540Z,101623.81
2023-03-22T06:08:41.110Z,101628.19
2023-03-22T06:11:08.085Z,101627.31
2023-03-22T06:13:37.399Z,101636.69
2023-03-22T06:16:06.140Z,101634.38
2023-03-22T06:18:33.430Z,101637.88
2023-03-22T06:21:08.514Z,101640.91
2023-03-22T06:23:36.188Z,101642.66
2023-03-22T06:26:03.167Z,101645.44
2023-03-22T06:28:31.283Z,101645.63
2023-03-22T06:31:05.442Z,101651.00
2023-03-22T06:33:58.641Z,101657.13
2023-03-22T06:36:31.705Z,101654.78
2023-03-22T06:39:08.816Z,101658.44
2023-03-22T06:41:36.038Z,101660.38
2023-03-22T06:44:03.026Z,101664.13
2023-03-22T06:46:56.207Z,101668.66
2023-03-22T06:49:42.834Z,101665.47
2023-03-22T06:52:15.209Z,101663.88
2023-03-22T06:54:42.086Z,101661.50
2023-03-22T06:57:10.184Z,101661.72
2023-03-22T06:59:36.985Z,101660.03
2023-03-22T07:02:04.440Z,101666.97
2023-03-22T07:04:33.199Z,101666.19
2023-03-22T07:07:00.051Z,101671.66
2023-03-22T07:09:27.695Z,101671.88
2023-03-22T07:11:57.843Z,101671.28
2023-03-22T07:14:25.324Z,101669.03
2023-03-22T07:17:06.634Z,101678.63
2023-03-22T07:19:34.225Z,101684.75
2023-03-22T07:22:06.502Z,101684.34
2023-03-22T07:24:33.871Z,101681.28
2023-03-22T07:27:02.217Z,101684.06
2023-03-22T07:29:29.598Z,101684.09
2023-03-22T07:31:56.837Z,101685.91
2023-03-22T07:34:32.687Z,101683.44
2023-03-22T07:37:12.429Z,101693.81
2023-03-22T07:39:41.080Z,101693.09
2023-03-22T07:42:08.032Z,101701.03
2023-03-22T07:45:13.339Z,101694.84
2023-03-22T07:47:41.535Z,101689.31
2023-03-22T07:50:17.756Z,101693.41
2023-03-22T07:52:47.729Z,101694.38
2023-03-22T07:55:14.975Z,101689.50
2023-03-22T07:57:42.312Z,101699.78
2023-03-22T08:00:10.537Z,101697.97
2023-03-22T08:02:46.553Z,101698.81
2023-03-22T08:05:28.643Z,101701.13
2023-03-22T08:08:00.682Z,101700.22
2023-03-22T08:10:27.844Z,101702.88
2023-03-22T08:12:55.180Z,101698.53
2023-03-22T08:15:25.680Z,101699.59
2023-03-22T08:17:53.450Z,101705.88
2023-03-22T08:20:32.839Z,101700.22
2023-03-22T08:23:04.174Z,101702.88
2023-03-22T08:25:43.360Z,101697.91
2023-03-22T08:28:12.000Z,101697.63
2023-03-22T08:30:39.787Z,101698.91
2023-03-22T08:33:06.773Z,101706.44
2023-03-22T08:35:34.659Z,101707.22
2023-03-22T08:38:01.524Z,101703.97
2023-03-22T08:40:36.883Z,101706.19
2023-03-22T08:43:04.207Z,101705.38
2023-03-22T08:45:31.072Z,101706.28
2023-03-22T08:48:06.108Z,101711.50
2023-03-22T08:50:46.575Z,101707.50
2023-03-22T08:53:21.784Z,101699.91
2023-03-22T08:55:58.127Z,101708.66
2023-03-22T08:58:35.942Z,101697.22
2023-03-22T09:01:21.149Z,101710.38
2023-03-22T09:03:52.755Z,101704.97
2023-03-22T09:06:20.004Z,101708.13
2023-03-22T09:08:47.376Z,101709.00
2023-03-22T09:11:17.959Z,101712.88
2023-03-22T09:13:51.259Z,101718.34
2023-03-22T09:16:19.145Z,101710.69
2023-03-22T09:18:47.244Z,101724.41
2023-03-22T09:21:21.885Z,101718.66
2023-03-22T09:24:09.370Z,101712.50
2023-03-22T09:26:43.567Z,101721.88
2023-03-22T09:29:10.926Z,101713.16
2023-03-22T09:31:39.931Z,101711.09
2023-03-22T09:34:16.119Z,101713.88
2023-03-22T09:36:42.966Z,101716.63
2023-03-22T09:39:13.336Z,101714.88
2023-03-22T09:41:43.450Z,101713.28
2023-03-22T09:44:26.173Z,101703.13
2023-03-22T09:46:55.578Z,101704.13
2023-03-22T09:49:32.138Z,101707.78
2023-03-22T09:52:00.029Z,101700.16
2023-03-22T09:54:35.902Z,101705.56
2023-03-22T09:57:11.589Z,101708.22
2023-03-22T09:59:48.287Z,101711.56
2023-03-22T10:02:45.964Z,101712.56
2023-03-22T10:05:22.196Z,101715.25
2023-03-22T10:08:18.068Z,101712.84
2023-03-22T10:10:45.569Z,101716.34
2023-03-22T10:13:19.985Z,101718.09
2023-03-22T10:16:00.041Z,101707.84
2023-03-22T10:18:33.717Z,101715.59
2023-03-22T10:21:11.021Z,101714.81
2023-03-22T10:23:46.881Z,101707.19
2023-03-22T10:26:20.089Z,101704.66
2023-03-22T10:28:56.064Z,101703.75
2023-03-22T10:31:24.204Z,101708.25
2023-03-22T10:34:05.808Z,101702.25
2023-03-22T10:36:36.665Z,101709.31
2023-03-22T10:39:11.462Z,101705.97
2023-03-22T10:41:39.507Z,101700.06
2023-03-22T10:44:07.372Z,101700.69
2023-03-22T10:46:39.363Z,101697.34
2023-03-22T10:49:07.809Z,101699.16
2023-03-22T10:51:43.691Z,101698.41
2023-03-22T10:54:17.352Z,101699.31
2023-03-22T10:56:45.095Z,101696.09
2023-03-22T10:59:49.267Z,101693.50
2023-03-22T11:02:27.690Z,101697.91
2023-03-22T11:05:00.615Z,101681.44
2023-03-22T11:07:36.665Z,101689.50
2023-03-22T11:10:09.497Z,101683.72
2023-03-22T11:12:57.316Z,101688.00
2023-03-22T11:15:28.064Z,101685.38
2023-03-22T11:18:00.500Z,101684.56
2023-03-22T11:20:29.945Z,101685.34
2023-03-22T11:23:02.781Z,101686.34
2023-03-22T11:25:32.574Z,101684.72
2023-03-22T11:28:05.494Z,101683.75
2023-03-22T11:30:36.301Z,101676.91
2023-03-22T11:33:09.161Z,101679.50
2023-03-22T11:35:38.816Z,101680.34
2023-03-22T11:38:05.727Z,101672.66
2023-03-22T11:40:36.488Z,101678.81
2023-03-22T11:43:24.301Z,101684.09
2023-03-22T11:45:56.468Z,101680.63
2023-03-22T11:48:27.399Z,101679.72
2023-03-22T11:50:59.415Z,101674.59
2023-03-22T11:53:28.207Z,101669.50
2023-03-22T11:55:57.685Z,101666.94
2023-03-22T11:58:28.283Z,101674.69
2023-03-22T12:00:59.563Z,101670.41
2023-03-22T12:03:36.736Z,101672.94
2023-03-22T12:06:15.821Z,101667.81
2023-03-22T12:08:42.883Z,101663.59
2023-03-22T12:11:19.828Z,101666.19
2023-03-22T12:14:29.648Z,101658.34
2023-03-22T12:17:02.553Z,101661.84
2023-03-22T12:20:12.345Z,101649.88
2023-03-22T12:22:43.499Z,101653.31
2023-03-22T12:25:17.535Z,101647.19
2023-03-22T12:27:48.542Z,101649.06
2023-03-22T12:30:22.981Z,101652.56
2023-03-22T12:32:58.748Z,101650.81
2023-03-22T12:35:30.195Z,101642.13
2023-03-22T12:37:59.603Z,101637.81
2023-03-22T12:40:32.239Z,101640.19
2023-03-22T12:43:22.625Z,101637.66
2023-03-22T12:45:54.932Z,101633.22
2023-03-22T12:48:39.747Z,101637.53
2023-03-22T12:51:09.209Z,101635.00
2023-03-22T12:53:42.593Z,101629.19
2023-03-22T12:56:12.939Z,101624.78
2023-03-22T12:58:40.629Z,101625.72
2023-03-22T13:01:29.099Z,101630.94
2023-03-22T13:03:57.878Z,101637.31
2023-03-22T13:06:44.210Z,101632.94
2023-03-22T13:09:16.992Z,101631.09
2023-03-22T13:11:49.799Z,101632.81
2023-03-22T13:14:48.958Z,101627.72
2023-03-22T13:17:38.229Z,101621.63
2023-03-22T13:20:08.113Z,101629.38
2023-03-22T13:22:38.039Z,101631.19
2023-03-22T13:25:14.501Z,101632.06
2023-03-22T13:28:03.332Z,101633.72
2023-03-22T13:30:34.885Z,101626.69
2023-03-22T13:33:10.557Z,101631.94
2023-03-22T13:36:01.400Z,101631.88
2023-03-22T13:38:37.174Z,101634.31
2023-03-22T13:41:28.141Z,101625.00
2023-03-22T13:44:00.528Z,101625.03
2023-03-22T13:46:29.296Z,101619.78
2023-03-22T13:49:01.889Z,101629.00
2023-03-22T13:51:32.031Z,101627.44
2023-03-22T13:54:08.670Z,101625.56
2023-03-22T13:56:56.304Z,101618.75
2023-03-22T13:59:25.579Z,101612.75
2023-03-22T14:01:52.434Z,101618.94
2023-03-22T14:04:50.740Z,101615.56
2023-03-22T14:07:23.339Z,101613.91
2023-03-22T14:09:54.332Z,101611.25
2023-03-22T14:12:45.252Z,101613.06
2023-03-22T14:15:17.421Z,101602.72
2023-03-22T14:17:50.596Z,101607.91
2023-03-22T14:20:21.608Z,101604.38
